Manitowoc, WI

4:43 PM CST on November 23, 2014 (GMT -0600)
Western Shore of Lake Michigan | Change Station
CLOSE
Current Station
Personal Weather Station
Location: Manitowoc, WI
Elevation: 639 ft
Nearby Weather Stations
Active Advisory: Special Statement

Elev 639 ft 44.11 °N, 87.67 °W | Updated 4 seconds ago

Light Rain
Light Rain Mist
43.9 °F
Feels Like 44 °F
N
2.9
Wind Variable Wind from SSE
Gusts 9.8 mph

Today
High -- | Low -- °F
--% Chance of Precip.
Yesterday
High -- | Low -- °F
Precip. -- in
6:56 AM 4:17 PM
New Moon, 2% visible
Pressure 29.47 in
Visibility 3.0 miles
Clouds Overcast 400 ft
Windchill 44 °F
Dew Point 42 °F
Humidity 91%
Rainfall 0.08 in
Snow Depth Not available.
UV 0 out of 12
Pollen .10 out of 12
Air Quality Not available.
Flu Activity Not available.
SPECI KMTW 232214Z AUTO 18013KT 3SM -RA BR OVC004 07/07 A2947 RMK AO2 P0002

More Conditions Fewer Conditions

Pressure 29.47 in
Visibility 3.0 miles
Clouds Overcast 400 ft
Windchill 44 °F
Dew Point 42 °F
Humidity 91%
Rainfall 0.08 in
Snow Depth Not available.
UV 0 out of 12
Pollen .10 out of 12
Air Quality Not available.
Flu Activity Not available.
SPECI KMTW 232214Z AUTO 18013KT 3SM -RA BR OVC004 07/07 A2947 RMK AO2 P0002

More Conditions Fewer Conditions

10-Day Weather Forecast

Almanac

Astronomy

Nov. 23, 2014 Rise Set
Actual Time
Civil Twilight
Nautical Twilight
Astronomical Twilight
Moon
Length of Visible Light
Length of Day
Tomorrow will be .
, % of the Moon is Illuminated

Today's Extremes

State Highs State Lows

Community

WunderPhotos

Upload Photos

1,773,187 photos uploaded!

WunderBlogs® & News

Nearby

Air Quality

  Air Quality AQ Index Pollutant
Not available.

Snow Depth

Station Depth Elevation

Earthquake Activity

City Distance Mag. Time & Date
Minimum magnitude displayed is 2.5.

Coastal Water Temperatures

Place Temperature

Nearby Weather Stations